createdAt,value
2018-11-21T00:00:54.398Z,50.33
2018-11-21T00:03:41.464Z,42.85
2018-11-21T00:06:28.027Z,41.35
2018-11-21T00:09:14.998Z,41.75
2018-11-21T00:12:02.154Z,50.55
2018-11-21T00:14:49.247Z,51.73
2018-11-21T00:17:36.359Z,49.30
2018-11-21T00:20:23.790Z,43.68
2018-11-21T00:23:10.678Z,42.25
2018-11-21T00:25:57.494Z,37.70
2018-11-21T00:28:44.360Z,43.17
2018-11-21T00:31:32.265Z,45.67
2018-11-21T00:34:19.129Z,43.63
2018-11-21T00:37:06.215Z,45.30
2018-11-21T00:39:53.435Z,40.80
2018-11-21T00:42:46.391Z,42.93
2018-11-21T00:45:27.343Z,46.13
2018-11-21T00:48:14.526Z,45.33
2018-11-21T00:51:01.344Z,39.90
2018-11-21T00:53:48.538Z,42.00
2018-11-21T00:56:35.686Z,46.45
2018-11-21T00:59:22.291Z,46.68
2018-11-21T01:02:09.216Z,45.67
2018-11-21T01:04:56.389Z,45.75
2018-11-21T01:07:43.279Z,53.10
2018-11-21T01:10:30.388Z,55.00
2018-11-21T01:13:17.507Z,42.78
2018-11-21T01:16:04.376Z,57.75
2018-11-21T01:18:51.545Z,55.63
2018-11-21T01:21:39.157Z,60.00
2018-11-21T01:24:26.858Z,68.72
2018-11-21T01:27:13.438Z,73.22
2018-11-21T01:30:00.533Z,39.98
2018-11-21T01:32:47.878Z,39.95
2018-11-21T01:35:34.912Z,36.58
2018-11-21T01:38:22.186Z,36.60
2018-11-21T01:41:08.816Z,38.85
2018-11-21T01:43:56.146Z,39.98
2018-11-21T01:46:43.039Z,43.35
2018-11-21T01:49:30.759Z,38.53
2018-11-21T01:52:17.712Z,46.48
2018-11-21T01:55:04.542Z,44.30
2018-11-21T01:57:51.687Z,41.02
2018-11-21T02:00:38.788Z,36.70
2018-11-21T02:03:26.118Z,48.92
2018-11-21T02:06:13.271Z,68.70
2018-11-21T02:09:00.330Z,75.05
2018-11-21T02:11:47.518Z,46.13
2018-11-21T02:14:34.641Z,41.15
2018-11-21T02:17:21.171Z,53.70
2018-11-21T02:20:08.166Z,52.55
2018-11-21T02:22:55.339Z,62.93
2018-11-21T02:25:42.530Z,58.50
2018-11-21T02:28:30.093Z,61.73
2018-11-21T02:31:16.887Z,47.70
2018-11-21T02:34:03.739Z,49.67
2018-11-21T02:36:51.039Z,46.18
2018-11-21T02:39:37.561Z,39.03
2018-11-21T02:42:24.428Z,37.50
2018-11-21T02:45:12.389Z,40.55
2018-11-21T02:47:59.368Z,114.60
2018-11-21T02:50:45.988Z,103.80
2018-11-21T02:53:32.870Z,70.42
2018-11-21T02:56:19.676Z,48.02
2018-11-21T02:59:06.329Z,44.80
2018-11-21T03:01:53.199Z,34.40
2018-11-21T03:04:40.159Z,36.85
2018-11-21T03:07:27.245Z,40.52
2018-11-21T03:10:14.089Z,38.45
2018-11-21T03:13:00.656Z,42.75
2018-11-21T03:15:47.502Z,39.40
2018-11-21T03:18:34.393Z,51.65
2018-11-21T03:21:21.158Z,45.25
2018-11-21T03:24:07.743Z,43.80
2018-11-21T03:26:54.592Z,53.05
2018-11-21T03:29:41.369Z,47.95
2018-11-21T03:32:27.944Z,90.62
2018-11-21T03:35:15.086Z,50.85
2018-11-21T03:38:02.262Z,46.73
2018-11-21T03:40:49.117Z,46.28
2018-11-21T03:43:36.215Z,38.90
2018-11-21T03:46:22.772Z,45.78
2018-11-21T03:49:09.369Z,39.90
2018-11-21T03:51:56.497Z,43.78
2018-11-21T03:54:43.362Z,37.35
2018-11-21T03:57:30.628Z,36.53
2018-11-21T04:00:17.433Z,40.25
2018-11-21T04:03:03.985Z,36.10
2018-11-21T04:05:51.138Z,38.05
2018-11-21T04:08:42.653Z,35.17
2018-11-21T04:11:26.210Z,40.17
2018-11-21T04:14:12.812Z,40.35
2018-11-21T04:16:59.911Z,33.28
2018-11-21T04:19:47.326Z,35.80
2018-11-21T04:22:34.179Z,39.88
2018-11-21T04:25:21.036Z,39.65
2018-11-21T04:28:07.535Z,39.75
2018-11-21T04:30:54.400Z,44.40
2018-11-21T04:33:40.965Z,36.13
2018-11-21T04:36:27.548Z,41.80
2018-11-21T04:39:14.132Z,37.98
2018-11-21T04:42:00.988Z,38.38
2018-11-21T04:44:47.882Z,38.30
2018-11-21T04:47:34.814Z,42.78
2018-11-21T04:50:21.591Z,38.30
2018-11-21T04:53:08.176Z,41.08
2018-11-21T04:55:54.791Z,39.27
2018-11-21T04:58:41.351Z,40.58
2018-11-21T05:01:28.149Z,38.98
2018-11-21T05:04:14.734Z,37.63
2018-11-21T05:07:01.321Z,36.50
2018-11-21T05:09:48.146Z,41.13
2018-11-21T05:12:34.911Z,36.05
2018-11-21T05:15:22.050Z,39.27
2018-11-21T05:18:08.621Z,47.67
2018-11-21T05:20:55.193Z,41.30
2018-11-21T05:23:42.527Z,39.95
2018-11-21T05:26:29.048Z,33.98
2018-11-21T05:29:15.890Z,39.45
2018-11-21T05:32:02.476Z,36.28
2018-11-21T05:34:49.331Z,34.90
2018-11-21T05:37:35.999Z,37.42
2018-11-21T05:40:40.929Z,33.65
2018-11-21T05:46:31.723Z,41.37
2018-11-21T05:52:35.431Z,35.40
2018-11-21T05:55:15.972Z,33.73
2018-11-21T05:58:15.825Z,40.98
2018-11-21T06:00:55.580Z,52.43
2018-11-21T06:03:54.983Z,39.98
2018-11-21T06:12:59.003Z,40.67
2018-11-21T06:15:58.124Z,35.85
2018-11-21T06:21:43.224Z,40.85
2018-11-21T06:27:26.731Z,39.55
2018-11-21T06:30:06.494Z,43.70
2018-11-21T06:32:46.288Z,45.33
2018-11-21T06:35:45.486Z,41.83
2018-11-21T06:38:25.819Z,49.85
2018-11-21T06:41:05.658Z,37.80
2018-11-21T06:49:58.260Z,35.98
2018-11-21T06:55:56.090Z,33.20
2018-11-21T06:58:55.332Z,38.30
2018-11-21T07:04:39.338Z,27.42
2018-11-21T07:38:24.660Z,28.15
2018-11-21T07:47:13.876Z,28.20
2018-11-21T07:49:53.670Z,28.17
2018-11-21T07:58:45.346Z,25.75
2018-11-21T08:04:48.411Z,27.93
2018-11-21T08:23:15.726Z,38.35
2018-11-21T08:26:12.454Z,32.15
2018-11-21T08:31:56.365Z,31.23
2018-11-21T08:34:56.759Z,29.70
2018-11-21T08:37:56.228Z,27.98
2018-11-21T08:44:02.829Z,28.73
2018-11-21T08:46:43.020Z,28.62
2018-11-21T08:49:22.828Z,26.05
2018-11-21T08:52:03.164Z,26.37
2018-11-21T08:54:42.620Z,23.83
2018-11-21T08:57:22.473Z,28.45
2018-11-21T09:00:21.466Z,27.10
2018-11-21T09:06:40.084Z,25.23
2018-11-21T09:09:19.483Z,30.30
2018-11-21T09:21:28.288Z,28.95
2018-11-21T09:24:08.065Z,22.13
2018-11-21T09:26:48.054Z,26.55
2018-11-21T09:32:43.766Z,30.43
2018-11-21T09:38:31.140Z,49.25
2018-11-21T09:41:11.201Z,39.48
2018-11-21T09:43:50.975Z,29.40
2018-11-21T09:46:30.796Z,25.25
2018-11-21T09:49:29.950Z,27.20
2018-11-21T09:55:14.362Z,23.18
2018-11-21T10:04:04.758Z,18.75
2018-11-21T10:16:22.827Z,21.40
2018-11-21T10:25:25.154Z,22.07
2018-11-21T10:28:04.894Z,24.35
2018-11-21T10:30:44.754Z,25.77
2018-11-21T10:36:17.584Z,24.55
2018-11-21T10:38:57.319Z,27.30
2018-11-21T10:41:56.556Z,22.25
2018-11-21T10:50:58.529Z,19.67
2018-11-21T10:53:38.185Z,30.62
2018-11-21T10:59:34.012Z,18.35
2018-11-21T11:11:45.644Z,17.98
2018-11-21T11:17:52.816Z,24.45
2018-11-21T11:20:51.676Z,22.77
2018-11-21T11:23:50.689Z,24.40
2018-11-21T11:33:02.503Z,20.52
2018-11-21T11:54:52.396Z,20.05
2018-11-21T11:57:44.094Z,32.90
2018-11-21T12:00:43.980Z,28.95
2018-11-21T12:03:45.520Z,24.20
2018-11-21T12:06:34.832Z,17.42
2018-11-21T12:09:24.382Z,17.77
2018-11-21T12:12:20.825Z,16.05
2018-11-21T12:15:07.985Z,23.22
2018-11-21T12:17:53.507Z,17.25
2018-11-21T12:20:38.833Z,19.32
2018-11-21T12:23:25.419Z,17.42
2018-11-21T12:26:10.778Z,17.15
2018-11-21T12:29:15.221Z,20.37
2018-11-21T12:32:01.345Z,21.20
2018-11-21T12:34:48.807Z,24.90
2018-11-21T12:37:34.775Z,16.93
2018-11-21T12:40:20.028Z,18.77
2018-11-21T12:43:05.613Z,23.22
2018-11-21T12:46:01.183Z,23.07
2018-11-21T12:48:56.691Z,29.48
2018-11-21T12:51:42.631Z,18.17
2018-11-21T12:54:27.660Z,20.43
2018-11-21T12:57:11.101Z,28.98
2018-11-21T12:59:53.641Z,18.82
2018-11-21T13:02:38.981Z,18.42
2018-11-21T13:05:25.705Z,17.02
2018-11-21T13:08:11.442Z,16.93
2018-11-21T13:10:48.426Z,26.00
2018-11-21T13:13:44.352Z,39.27
2018-11-21T13:16:49.943Z,68.30
